Time;durP1;ratioP1;P1;durP2;ratioP2;P2;SDS_P1;SDS_P2;PMS_P1;PMS_P2;Temp;Humidity;BMP_temperature;BMP_pressure;BME280_temperature;BME280_humidity;BME280_pressure;Samples;Min_cycle;Max_cycle;Signal;HPM_P1;HPM_P2
2022/09/27 00:00:37;;;;;;;;;;;;;;;;;;1897482;28;7050;-67
2022/09/27 00:01:34;;;;;;;;;;;;;;;;;;1897286;28;7050;-68
2022/09/27 00:02:32;;;;;;;;;;;;;;;;;;1896971;28;7066;-67
2022/09/27 00:03:29;;;;;;;;;;;;;;;;;;1895776;28;7327;-67
2022/09/27 00:04:26;;;;;;;;;;;;;;;;;;1897147;28;7026;-67
2022/09/27 00:05:24;;;;;;;;;;;;;;;;;;1897031;28;7925;-66
2022/09/27 00:06:24;;;;;;;;;;;;;;;;;;1895900;28;7014;-67
2022/09/27 00:07:21;;;;;;;;;;;;;;;;;;1896895;28;7009;-66
2022/09/27 00:08:18;;;;;;;;;;;;;;;;;;1897199;28;7006;-67
2022/09/27 00:09:16;;;;;;;;;;;;;;;;;;1896224;28;7084;-67
2022/09/27 00:10:13;;;;;;;;;;;;;;;;;;1896918;28;7124;-67
2022/09/27 00:11:23;;;;;;;;;;;;;;;;;;1897188;28;7006;-67
2022/09/27 00:12:21;;;;;;;;;;;;;;;;;;1896664;28;7029;-68
2022/09/27 00:13:18;;;;;;;;;;;;;;;;;;1895915;28;7026;-68
2022/09/27 00:14:16;;;;;;;;;;;;;;;;;;1896224;28;7093;-68
2022/09/27 00:15:13;;;;;;;;;;;;;;;;;;1894111;28;7048;-66
2022/09/27 00:16:11;;;;;;;;;;;;;;;;;;1895336;28;7018;-67
2022/09/27 00:17:08;;;;;;;;;;;;;;;;;;1892215;28;7265;-65
2022/09/27 00:18:06;;;;;;;;;;;;;;;;;;1888220;28;7025;-66
2022/09/27 00:19:05;;;;;;;;;;;;;;;;;;1894721;28;7042;-68
2022/09/27 00:20:04;;;;;;;;;;;;;;;;;;1893862;28;8051;-66
2022/09/27 00:21:05;;;;;;;;;;;;;;;;;;1890638;28;9319;-68
2022/09/27 00:22:03;;;;;;;;;;;;;;;;;;1896565;28;7042;-67
2022/09/27 00:23:00;;;;;;;;;;;;;;;;;;1895025;28;7014;-67
2022/09/27 00:23:58;;;;;;;;;;;;;;;;;;1891308;28;7038;-67
2022/09/27 00:24:55;;;;;;;;;;;;;;;;;;1890605;28;7097;-68
2022/09/27 00:25:57;;;;;;;;;;;;;;;;;;1890581;28;8104;-67
2022/09/27 00:26:54;;;;;;;;;;;;;;;;;;1888695;28;7388;-68
2022/09/27 00:27:51;;;;;;;;;;;;;;;;;;1889546;28;7034;-66
2022/09/27 00:28:49;;;;;;;;;;;;;;;;;;1889198;28;7009;-68
2022/09/27 00:29:46;;;;;;;;;;;;;;;;;;1887048;28;7242;-68
2022/09/27 00:32:37;;;;;;;;;;;;;;;;;;1894274;28;7014;-67
2022/09/27 00:33:34;;;;;;;;;;;;;;;;;;1888112;28;7029;-68
2022/09/27 00:34:32;;;;;;;;;;;;;;;;;;1894577;28;7017;-67
2022/09/27 00:35:29;;;;;;;;;;;;;;;;;;1894093;28;7117;-67
2022/09/27 00:36:28;;;;;;;;;;;;;;;;;;1893747;28;7096;-68
2022/09/27 00:37:26;;;;;;;;;;;;;;;;;;1896238;28;7250;-66
2022/09/27 00:38:23;;;;;;;;;;;;;;;;;;1896390;28;7010;-68
2022/09/27 00:39:21;;;;;;;;;;;;;;;;;;1894709;28;7009;-67
2022/09/27 00:40:22;;;;;;;;;;;;;;;;;;1887876;28;7026;-68
2022/09/27 00:41:23;;;;;;;;;;;;;;;;;;1883657;28;7005;-66
2022/09/27 00:42:20;;;;;;;;;;;;;;;;;;1884726;28;7129;-67
2022/09/27 00:43:20;;;;;;;;;;;;;;;;;;1891083;28;7192;-69
2022/09/27 00:44:26;;;;;;;;;;;;;;;;;;1884467;28;7050;-68
2022/09/27 00:45:23;;;;;;;;;;;;;;;;;;1880210;28;7010;-67
2022/09/27 00:46:31;;;;;;;;;;;;;;;;;;1891024;28;7018;-67
2022/09/27 00:47:33;;;;;;;;;;;;;;;;;;1892089;28;7026;-67
2022/09/27 00:48:35;;;;;;;;;;;;;;;;;;1888823;28;7014;-67
2022/09/27 00:49:39;;;;;;;;;;;;;;;;;;1884242;28;7005;-67
2022/09/27 00:50:45;;;;;;;;;;;;;;;;;;1888522;28;7010;-67
2022/09/27 00:51:47;;;;;;;;;;;;;;;;;;1896673;28;8044;-67
2022/09/27 00:52:54;;;;;;;;;;;;;;;;;;1896336;28;7006;-67
2022/09/27 00:53:55;;;;;;;;;;;;;;;;;;1888383;28;7050;-67
2022/09/27 00:54:57;;;;;;;;;;;;;;;;;;1889101;28;7006;-66
2022/09/27 00:55:58;;;;;;;;;;;;;;;;;;1894875;28;7093;-68
2022/09/27 00:56:57;;;;;;;;;;;;;;;;;;1892764;28;7058;-67
2022/09/27 00:57:56;;;;;;;;;;;;;;;;;;1892456;28;7309;-68
2022/09/27 00:58:59;;;;;;;;;;;;;;;;;;1896835;28;7018;-66
2022/09/27 01:00:02;;;;;;;;;;;;;;;;;;1894997;28;7014;-66
2022/09/27 01:01:02;;;;;;;;;;;;;;;;;;1891217;28;7022;-67
2022/09/27 01:02:00;;;;;;;;;;;;;;;;;;1890090;28;7100;-68
2022/09/27 01:02:59;;;;;;;;;;;;;;;;;;1890024;28;7113;-68
2022/09/27 01:04:06;;;;;;;;;;;;;;;;;;1895424;28;8142;-68
2022/09/27 01:05:07;;;;;;;;;;;;;;;;;;1896218;28;7096;-67
2022/09/27 01:06:07;;;;;;;;;;;;;;;;;;1890733;28;7009;-68
2022/09/27 01:07:04;;;;;;;;;;;;;;;;;;1891786;28;7013;-67
2022/09/27 01:08:02;;;;;;;;;;;;;;;;;;1891435;28;7121;-66
2022/09/27 01:09:00;;;;;;;;;;;;;;;;;;1885511;28;7042;-66
2022/09/27 01:09:58;;;;;;;;;;;;;;;;;;1877399;28;9545;-68
2022/09/27 01:11:04;;;;;;;;;;;;;;;;;;1880753;28;7001;-68
2022/09/27 01:12:19;;;;;;;;;;;;;;;;;;1896170;28;7022;-67
2022/09/27 01:13:17;;;;;;;;;;;;;;;;;;1884197;28;7038;-69
2022/09/27 01:14:33;;;;;;;;;;;;;;;;;;1891113;28;7044;-68
2022/09/27 01:15:38;;;;;;;;;;;;;;;;;;1895673;28;7042;-69
2022/09/27 01:16:55;;;;;;;;;;;;;;;;;;1902740;28;7001;-70
2022/09/27 01:17:58;;;;;;;;;;;;;;;;;;1895219;28;7104;-67
2022/09/27 01:19:07;;;;;;;;;;;;;;;;;;1895241;28;8104;-66
2022/09/27 01:20:23;;;;;;;;;;;;;;;;;;1895900;28;8108;-66
2022/09/27 01:21:37;;;;;;;;;;;;;;;;;;1896675;28;8076;-66
2022/09/27 01:22:35;;;;;;;;;;;;;;;;;;1895724;28;7169;-66
2022/09/27 01:23:51;;;;;;;;;;;;;;;;;;1895356;28;7088;-66
2022/09/27 01:24:57;;;;;;;;;;;;;;;;;;1896554;28;8927;-67
2022/09/27 01:26:09;;;;;;;;;;;;;;;;;;1895360;28;7093;-68
2022/09/27 01:27:25;;;;;;;;;;;;;;;;;;1896293;28;7038;-68
2022/09/27 01:28:38;;;;;;;;;;;;;;;;;;1896031;28;7009;-65
2022/09/27 01:29:52;;;;;;;;;;;;;;;;;;1896309;28;8115;-68
2022/09/27 01:31:00;;;;;;;;;;;;;;;;;;1896381;28;7109;-68
2022/09/27 01:32:14;;;;;;;;;;;;;;;;;;1896629;28;7046;-69
2022/09/27 01:33:30;;;;;;;;;;;;;;;;;;1894361;28;7037;-68
2022/09/27 01:34:57;;;;;;;;;;;;;;;;;;1896246;28;7046;-69
2022/09/27 01:36:02;;;;;;;;;;;;;;;;;;1884222;28;7025;-67
2022/09/27 01:37:06;;;;;;;;;;;;;;;;;;1895719;28;7041;-68
2022/09/27 01:38:13;;;;;;;;;;;;;;;;;;1896191;28;7701;-66
2022/09/27 01:39:30;;;;;;;;;;;;;;;;;;1895940;28;8043;-69
2022/09/27 01:40:30;;;;;;;;;;;;;;;;;;1896720;28;8047;-67
2022/09/27 01:41:42;;;;;;;;;;;;;;;;;;1896273;28;7006;-67
2022/09/27 01:42:56;;;;;;;;;;;;;;;;;;1896065;28;7319;-66
2022/09/27 01:43:54;;;;;;;;;;;;;;;;;;1896209;28;8102;-68
2022/09/27 01:44:51;;;;;;;;;;;;;;;;;;1896380;28;7021;-68
2022/09/27 01:45:59;;;;;;;;;;;;;;;;;;1896241;28;7014;-67
2022/09/27 01:47:07;;;;;;;;;;;;;;;;;;1896534;28;7034;-69
2022/09/27 01:48:14;;;;;;;;;;;;;;;;;;1894593;28;7144;-66
2022/09/27 01:49:15;;;;;;;;;;;;;;;;;;1888273;28;7348;-69
2022/09/27 01:50:19;;;;;;;;;;;;;;;;;;1894618;28;9095;-69
2022/09/27 01:51:24;;;;;;;;;;;;;;;;;;1896909;28;7013;-67
2022/09/27 01:52:27;;;;;;;;;;;;;;;;;;1896967;28;7006;-67
2022/09/27 01:53:31;;;;;;;;;;;;;;;;;;1895140;28;7005;-69
2022/09/27 01:54:35;;;;;;;;;;;;;;;;;;1896973;28;7021;-69
2022/09/27 01:55:36;;;;;;;;;;;;;;;;;;1897912;28;7042;-68
2022/09/27 01:56:38;;;;;;;;;;;;;;;;;;1897975;28;7010;-66
2022/09/27 01:57:39;;;;;;;;;;;;;;;;;;1897570;28;7001;-67
2022/09/27 01:58:44;;;;;;;;;;;;;;;;;;1896990;28;7014;-68
2022/09/27 01:59:49;;;;;;;;;;;;;;;;;;1897674;28;7334;-67
2022/09/27 02:00:49;;;;;;;;;;;;;;;;;;1897903;28;8052;-68
2022/09/27 02:01:50;;;;;;;;;;;;;;;;;;1898020;28;7029;-68
2022/09/27 02:02:53;;;;;;;;;;;;;;;;;;1897631;28;7021;-68
2022/09/27 02:03:53;;;;;;;;;;;;;;;;;;1896104;28;7269;-69
2022/09/27 02:04:55;;;;;;;;;;;;;;;;;;1896044;28;7129;-68
2022/09/27 02:05:57;;;;;;;;;;;;;;;;;;1895425;28;7291;-67
2022/09/27 02:06:59;;;;;;;;;;;;;;;;;;1895863;28;7042;-67
2022/09/27 02:08:01;;;;;;;;;;;;;;;;;;1895245;28;7049;-67
2022/09/27 02:09:05;;;;;;;;;;;;;;;;;;1896534;28;7326;-66
2022/09/27 02:10:15;;;;;;;;;;;;;;;;;;1895792;28;7054;-67
2022/09/27 02:11:13;;;;;;;;;;;;;;;;;;1898129;28;7113;-68
2022/09/27 02:12:14;;;;;;;;;;;;;;;;;;1897700;28;7046;-68
2022/09/27 02:13:14;;;;;;;;;;;;;;;;;;1897801;28;7009;-66
2022/09/27 02:14:20;;;;;;;;;;;;;;;;;;1893230;28;7383;-67
2022/09/27 02:15:17;;;;;;;;;;;;;;;;;;1895982;28;7372;-69
2022/09/27 02:16:24;;;;;;;;;;;;;;;;;;1896548;28;7029;-69
2022/09/27 02:17:29;;;;;;;;;;;;;;;;;;1897941;28;7021;-68
2022/09/27 02:18:40;;;;;;;;;;;;;;;;;;1886999;28;7013;-66
2022/09/27 02:19:37;;;;;;;;;;;;;;;;;;1896194;28;7056;-67
2022/09/27 02:20:40;;;;;;;;;;;;;;;;;;1897413;28;7124;-67
2022/09/27 02:21:54;;;;;;;;;;;;;;;;;;1893184;28;8043;-68
2022/09/27 02:23:10;;;;;;;;;;;;;;;;;;1889563;28;8044;-69
2022/09/27 02:24:13;;;;;;;;;;;;;;;;;;1889041;28;7138;-67
2022/09/27 02:25:23;;;;;;;;;;;;;;;;;;1895233;28;7010;-68
2022/09/27 02:26:28;;;;;;;;;;;;;;;;;;1897540;28;7009;-66
2022/09/27 02:27:33;;;;;;;;;;;;;;;;;;1893365;28;7013;-69
2022/09/27 02:28:30;;;;;;;;;;;;;;;;;;1892353;28;7384;-68
2022/09/27 02:29:34;;;;;;;;;;;;;;;;;;1889871;28;7117;-69
2022/09/27 02:30:31;;;;;;;;;;;;;;;;;;1891729;28;9068;-68
2022/09/27 02:31:29;;;;;;;;;;;;;;;;;;1890033;28;7025;-68
2022/09/27 02:32:28;;;;;;;;;;;;;;;;;;1890750;28;7101;-67
2022/09/27 02:33:29;;;;;;;;;;;;;;;;;;1894128;28;7029;-68
2022/09/27 02:34:30;;;;;;;;;;;;;;;;;;1895597;28;8037;-68
2022/09/27 02:35:30;;;;;;;;;;;;;;;;;;1890227;28;7050;-67
2022/09/27 02:36:29;;;;;;;;;;;;;;;;;;1892235;28;7125;-67
2022/09/27 02:37:26;;;;;;;;;;;;;;;;;;1894005;28;8017;-69
2022/09/27 02:38:24;;;;;;;;;;;;;;;;;;1889482;28;7038;-69
2022/09/27 02:39:22;;;;;;;;;;;;;;;;;;1896857;28;7014;-68
2022/09/27 02:40:20;;;;;;;;;;;;;;;;;;1890549;28;7057;-68
2022/09/27 02:41:20;;;;;;;;;;;;;;;;;;1893402;28;7128;-67
2022/09/27 02:42:17;;;;;;;;;;;;;;;;;;1895904;28;7042;-69
2022/09/27 02:43:17;;;;;;;;;;;;;;;;;;1891617;28;7042;-66
2022/09/27 02:44:16;;;;;;;;;;;;;;;;;;1895082;28;7050;-69
2022/09/27 02:45:16;;;;;;;;;;;;;;;;;;1897901;28;7052;-68
2022/09/27 02:46:25;;;;;;;;;;;;;;;;;;1882029;28;7018;-67
2022/09/27 02:47:25;;;;;;;;;;;;;;;;;;1882029;28;7039;-67
2022/09/27 02:48:35;;;;;;;;;;;;;;;;;;1890800;28;7046;-67
2022/09/27 02:49:35;;;;;;;;;;;;;;;;;;1897349;28;7041;-67
2022/09/27 02:50:35;;;;;;;;;;;;;;;;;;1894633;28;7009;-68
2022/09/27 02:51:38;;;;;;;;;;;;;;;;;;1893978;28;7018;-69
2022/09/27 02:52:49;;;;;;;;;;;;;;;;;;1897335;28;7005;-68
2022/09/27 02:54:04;;;;;;;;;;;;;;;;;;1887385;28;8036;-68
2022/09/27 02:55:05;;;;;;;;;;;;;;;;;;1890867;28;7393;-69
2022/09/27 02:56:02;;;;;;;;;;;;;;;;;;1893436;28;8020;-69
2022/09/27 02:57:10;;;;;;;;;;;;;;;;;;1897295;28;7105;-67
2022/09/27 02:58:11;;;;;;;;;;;;;;;;;;1897070;28;7046;-67
2022/09/27 02:59:19;;;;;;;;;;;;;;;;;;1890340;28;7177;-68
2022/09/27 03:00:19;;;;;;;;;;;;;;;;;;1895952;28;7002;-68
2022/09/27 03:01:19;;;;;;;;;;;;;;;;;;1892703;28;7006;-68
2022/09/27 03:02:32;;;;;;;;;;;;;;;;;;1891823;28;7130;-66
2022/09/27 03:03:37;;;;;;;;;;;;;;;;;;1893018;28;7094;-67
2022/09/27 03:04:37;;;;;;;;;;;;;;;;;;1896896;28;7131;-67
2022/09/27 03:05:49;;;;;;;;;;;;;;;;;;1889580;28;7006;-68
2022/09/27 03:06:47;;;;;;;;;;;;;;;;;;1881709;28;8163;-68
2022/09/27 03:07:45;;;;;;;;;;;;;;;;;;1887344;28;7089;-67
2022/09/27 03:08:43;;;;;;;;;;;;;;;;;;1895908;28;7089;-68
2022/09/27 03:09:43;;;;;;;;;;;;;;;;;;1893916;28;7009;-67
2022/09/27 03:10:41;;;;;;;;;;;;;;;;;;1892278;28;7027;-67
2022/09/27 03:11:38;;;;;;;;;;;;;;;;;;1892480;28;7006;-66
2022/09/27 03:12:35;;;;;;;;;;;;;;;;;;1889309;28;8197;-67
2022/09/27 03:13:33;;;;;;;;;;;;;;;;;;1889133;28;7018;-67
2022/09/27 03:14:57;;;;;;;;;;;;;;;;;;1896053;28;7373;-67
2022/09/27 03:15:55;;;;;;;;;;;;;;;;;;1897250;28;7009;-66
2022/09/27 03:16:57;;;;;;;;;;;;;;;;;;1897581;28;7042;-68
2022/09/27 03:17:55;;;;;;;;;;;;;;;;;;1895111;28;7089;-67
2022/09/27 03:18:52;;;;;;;;;;;;;;;;;;1897828;28;7022;-68
2022/09/27 03:19:49;;;;;;;;;;;;;;;;;;1897104;28;7417;-67
2022/09/27 03:20:47;;;;;;;;;;;;;;;;;;1897358;28;7006;-68
2022/09/27 03:21:44;;;;;;;;;;;;;;;;;;1897430;28;7006;-67
2022/09/27 03:22:42;;;;;;;;;;;;;;;;;;1897980;28;7121;-66
2022/09/27 03:23:39;;;;;;;;;;;;;;;;;;1894710;28;7805;-67
2022/09/27 03:24:36;;;;;;;;;;;;;;;;;;1896468;28;7005;-68
2022/09/27 03:25:34;;;;;;;;;;;;;;;;;;1897547;28;7010;-67
2022/09/27 03:26:31;;;;;;;;;;;;;;;;;;1897212;28;7017;-68
2022/09/27 03:27:28;;;;;;;;;;;;;;;;;;1897388;28;7039;-70
2022/09/27 03:28:28;;;;;;;;;;;;;;;;;;1897433;28;7046;-67
2022/09/27 03:29:25;;;;;;;;;;;;;;;;;;1897898;28;7005;-67
2022/09/27 03:30:23;;;;;;;;;;;;;;;;;;1897437;28;7010;-67
2022/09/27 03:31:20;;;;;;;;;;;;;;;;;;1895868;28;7025;-67
2022/09/27 03:32:18;;;;;;;;;;;;;;;;;;1896996;28;7575;-68
2022/09/27 03:33:15;;;;;;;;;;;;;;;;;;1895880;28;7009;-69
2022/09/27 03:34:12;;;;;;;;;;;;;;;;;;1897650;28;7088;-68
2022/09/27 03:35:12;;;;;;;;;;;;;;;;;;1896997;28;7006;-68
2022/09/27 03:36:10;;;;;;;;;;;;;;;;;;1897493;28;7144;-68
2022/09/27 03:37:08;;;;;;;;;;;;;;;;;;1897241;28;7041;-68
2022/09/27 03:38:06;;;;;;;;;;;;;;;;;;1896282;28;7312;-68
2022/09/27 03:39:03;;;;;;;;;;;;;;;;;;1897365;28;7001;-68
2022/09/27 03:40:00;;;;;;;;;;;;;;;;;;1897490;28;8119;-69
2022/09/27 03:40:58;;;;;;;;;;;;;;;;;;1897309;28;7106;-67
2022/09/27 03:41:56;;;;;;;;;;;;;;;;;;1897023;28;7121;-66
2022/09/27 03:42:53;;;;;;;;;;;;;;;;;;1897270;28;7025;-65
2022/09/27 03:43:51;;;;;;;;;;;;;;;;;;1896523;28;7097;-66
2022/09/27 03:44:50;;;;;;;;;;;;;;;;;;1896144;28;7033;-67
2022/09/27 03:45:47;;;;;;;;;;;;;;;;;;1896997;28;7069;-67
2022/09/27 03:46:44;;;;;;;;;;;;;;;;;;1897556;28;8033;-68
2022/09/27 03:47:42;;;;;;;;;;;;;;;;;;1895172;28;7117;-69
2022/09/27 03:48:41;;;;;;;;;;;;;;;;;;1896453;28;7026;-67
2022/09/27 03:49:38;;;;;;;;;;;;;;;;;;1895090;28;7010;-69
2022/09/27 03:50:36;;;;;;;;;;;;;;;;;;1897241;28;7101;-67
2022/09/27 03:51:33;;;;;;;;;;;;;;;;;;1896757;28;7096;-67
2022/09/27 03:52:30;;;;;;;;;;;;;;;;;;1896322;28;7124;-66
2022/09/27 03:53:28;;;;;;;;;;;;;;;;;;1895942;28;7005;-69
2022/09/27 03:54:25;;;;;;;;;;;;;;;;;;1897283;28;7144;-68
2022/09/27 03:55:22;;;;;;;;;;;;;;;;;;1897024;28;7104;-67
2022/09/27 03:56:20;;;;;;;;;;;;;;;;;;1896971;28;7333;-68
2022/09/27 03:57:17;;;;;;;;;;;;;;;;;;1896548;28;7328;-67
2022/09/27 03:58:14;;;;;;;;;;;;;;;;;;1895722;28;7042;-68
2022/09/27 03:59:12;;;;;;;;;;;;;;;;;;1897136;28;7092;-67
2022/09/27 04:00:10;;;;;;;;;;;;;;;;;;1897337;28;7050;-68
2022/09/27 04:01:07;;;;;;;;;;;;;;;;;;1896920;28;7109;-68
2022/09/27 04:02:05;;;;;;;;;;;;;;;;;;1896076;28;7832;-68
2022/09/27 04:03:04;;;;;;;;;;;;;;;;;;1896282;28;7026;-67
2022/09/27 04:04:01;;;;;;;;;;;;;;;;;;1894507;28;7317;-68
2022/09/27 04:05:01;;;;;;;;;;;;;;;;;;1896305;28;7009;-68
2022/09/27 04:05:59;;;;;;;;;;;;;;;;;;1897203;28;7042;-68
2022/09/27 04:06:57;;;;;;;;;;;;;;;;;;1896895;28;7096;-66
2022/09/27 04:07:55;;;;;;;;;;;;;;;;;;1897900;28;7005;-68
2022/09/27 04:08:53;;;;;;;;;;;;;;;;;;1895897;28;8158;-69
2022/09/27 04:09:50;;;;;;;;;;;;;;;;;;1897394;28;7005;-68
2022/09/27 04:10:47;;;;;;;;;;;;;;;;;;1895756;28;7220;-67
2022/09/27 04:11:45;;;;;;;;;;;;;;;;;;1896638;28;7010;-67
2022/09/27 04:12:43;;;;;;;;;;;;;;;;;;1894510;28;7005;-68
2022/09/27 04:13:40;;;;;;;;;;;;;;;;;;1892643;28;7013;-66
2022/09/27 04:14:37;;;;;;;;;;;;;;;;;;1895110;28;7038;-67
2022/09/27 04:15:36;;;;;;;;;;;;;;;;;;1893665;28;7017;-69
2022/09/27 04:16:34;;;;;;;;;;;;;;;;;;1889639;28;7010;-69
2022/09/27 04:17:31;;;;;;;;;;;;;;;;;;1893234;28;7501;-67
2022/09/27 04:18:29;;;;;;;;;;;;;;;;;;1890097;28;7037;-68
2022/09/27 04:19:26;;;;;;;;;;;;;;;;;;1889777;28;7109;-66
2022/09/27 04:20:23;;;;;;;;;;;;;;;;;;1891532;28;7018;-66
2022/09/27 04:21:21;;;;;;;;;;;;;;;;;;1889911;28;7006;-68
2022/09/27 04:22:19;;;;;;;;;;;;;;;;;;1882521;28;7316;-68
2022/09/27 04:23:16;;;;;;;;;;;;;;;;;;1888280;28;7014;-66
2022/09/27 04:24:14;;;;;;;;;;;;;;;;;;1887052;28;7093;-67
2022/09/27 04:25:11;;;;;;;;;;;;;;;;;;1891734;28;7113;-66
2022/09/27 04:26:12;;;;;;;;;;;;;;;;;;1896706;28;7010;-69
2022/09/27 04:27:09;;;;;;;;;;;;;;;;;;1888731;28;7093;-66
2022/09/27 04:28:07;;;;;;;;;;;;;;;;;;1886630;28;8035;-67
2022/09/27 04:29:04;;;;;;;;;;;;;;;;;;1890140;28;7570;-66
2022/09/27 04:30:02;;;;;;;;;;;;;;;;;;1897295;28;7014;-66
2022/09/27 04:30:59;;;;;;;;;;;;;;;;;;1896028;28;7093;-67
2022/09/27 04:31:56;;;;;;;;;;;;;;;;;;1878411;28;7018;-67
2022/09/27 04:32:54;;;;;;;;;;;;;;;;;;1881990;28;7078;-67
2022/09/27 04:33:52;;;;;;;;;;;;;;;;;;1891739;28;7014;-69
2022/09/27 04:37:21;;;;;;;;;;;;;;;;;;1896447;28;7022;-67
2022/09/27 04:38:22;;;;;;;;;;;;;;;;;;1896555;28;7093;-68
2022/09/27 04:39:20;;;;;;;;;;;;;;;;;;1887333;28;7097;-69
2022/09/27 04:40:19;;;;;;;;;;;;;;;;;;1884961;28;7121;-68
2022/09/27 04:41:16;;;;;;;;;;;;;;;;;;1888293;28;7002;-68
2022/09/27 04:42:14;;;;;;;;;;;;;;;;;;1890095;28;7046;-67
2022/09/27 04:43:11;;;;;;;;;;;;;;;;;;1896398;28;7006;-66
2022/09/27 04:44:10;;;;;;;;;;;;;;;;;;1892217;28;7121;-67
2022/09/27 04:45:07;;;;;;;;;;;;;;;;;;1890386;28;7113;-68
2022/09/27 04:46:05;;;;;;;;;;;;;;;;;;1890169;28;7121;-68
2022/09/27 04:47:02;;;;;;;;;;;;;;;;;;1890206;28;7097;-67
2022/09/27 04:47:59;;;;;;;;;;;;;;;;;;1889692;28;7658;-67
2022/09/27 04:48:58;;;;;;;;;;;;;;;;;;1892651;28;7017;-67
2022/09/27 04:49:55;;;;;;;;;;;;;;;;;;1889081;28;8110;-67
2022/09/27 04:50:57;;;;;;;;;;;;;;;;;;1894379;28;7117;-67
2022/09/27 04:51:55;;;;;;;;;;;;;;;;;;1897296;28;7017;-68
2022/09/27 04:52:53;;;;;;;;;;;;;;;;;;1895450;28;7395;-68
2022/09/27 04:53:50;;;;;;;;;;;;;;;;;;1887875;28;8096;-67
2022/09/27 04:54:47;;;;;;;;;;;;;;;;;;1886627;28;7002;-67
2022/09/27 04:55:46;;;;;;;;;;;;;;;;;;1890245;28;7046;-68
2022/09/27 04:56:43;;;;;;;;;;;;;;;;;;1890040;28;7092;-68
2022/09/27 04:57:43;;;;;;;;;;;;;;;;;;1890156;28;7076;-67
2022/09/27 04:58:41;;;;;;;;;;;;;;;;;;1891617;28;7006;-66
2022/09/27 04:59:41;;;;;;;;;;;;;;;;;;1891470;28;7074;-68
2022/09/27 05:00:41;;;;;;;;;;;;;;;;;;1889160;28;8044;-67
2022/09/27 05:01:39;;;;;;;;;;;;;;;;;;1888663;28;7381;-68
2022/09/27 05:02:37;;;;;;;;;;;;;;;;;;1890570;28;7002;-67
2022/09/27 05:03:34;;;;;;;;;;;;;;;;;;1886754;28;7025;-67
2022/09/27 05:04:31;;;;;;;;;;;;;;;;;;1889820;28;7013;-66
2022/09/27 05:05:29;;;;;;;;;;;;;;;;;;1893236;28;7026;-67
2022/09/27 05:06:26;;;;;;;;;;;;;;;;;;1889064;28;7002;-68
2022/09/27 05:07:24;;;;;;;;;;;;;;;;;;1890818;28;7573;-68
2022/09/27 05:08:22;;;;;;;;;;;;;;;;;;1892148;28;7245;-67
2022/09/27 05:09:19;;;;;;;;;;;;;;;;;;1893343;28;7014;-66
2022/09/27 05:10:16;;;;;;;;;;;;;;;;;;1887862;28;7009;-67
2022/09/27 05:11:14;;;;;;;;;;;;;;;;;;1890048;28;7196;-66
2022/09/27 05:12:12;;;;;;;;;;;;;;;;;;1891430;28;7009;-67
2022/09/27 05:13:09;;;;;;;;;;;;;;;;;;1892689;28;7205;-68
2022/09/27 05:14:07;;;;;;;;;;;;;;;;;;1894223;28;8592;-68
2022/09/27 05:15:04;;;;;;;;;;;;;;;;;;1897784;28;7093;-67
2022/09/27 05:16:02;;;;;;;;;;;;;;;;;;1898030;28;7153;-67
2022/09/27 05:17:00;;;;;;;;;;;;;;;;;;1896909;28;7014;-66
2022/09/27 05:17:58;;;;;;;;;;;;;;;;;;1895045;28;7120;-67
2022/09/27 05:18:56;;;;;;;;;;;;;;;;;;1897725;28;7096;-68
2022/09/27 05:19:54;;;;;;;;;;;;;;;;;;1898821;28;7132;-68
2022/09/27 05:20:52;;;;;;;;;;;;;;;;;;1898338;28;7010;-67
2022/09/27 05:21:49;;;;;;;;;;;;;;;;;;1896607;28;7029;-67
2022/09/27 05:22:46;;;;;;;;;;;;;;;;;;1897124;28;7042;-68
2022/09/27 05:23:44;;;;;;;;;;;;;;;;;;1894530;28;7113;-67
2022/09/27 05:24:44;;;;;;;;;;;;;;;;;;1897507;28;7009;-68
2022/09/27 05:25:42;;;;;;;;;;;;;;;;;;1896668;28;7387;-67
2022/09/27 05:26:40;;;;;;;;;;;;;;;;;;1897411;28;7014;-67
2022/09/27 05:27:38;;;;;;;;;;;;;;;;;;1896933;28;7096;-68
2022/09/27 05:28:35;;;;;;;;;;;;;;;;;;1897722;28;7009;-67
2022/09/27 05:29:33;;;;;;;;;;;;;;;;;;1897665;28;7029;-68
2022/09/27 05:30:31;;;;;;;;;;;;;;;;;;1898704;28;7113;-69
2022/09/27 05:31:29;;;;;;;;;;;;;;;;;;1897767;28;7037;-69
2022/09/27 05:32:28;;;;;;;;;;;;;;;;;;1897378;28;7030;-66
2022/09/27 05:33:25;;;;;;;;;;;;;;;;;;1896509;28;7045;-66
2022/09/27 05:34:23;;;;;;;;;;;;;;;;;;1896818;28;7128;-67
2022/09/27 05:35:21;;;;;;;;;;;;;;;;;;1897242;28;7005;-67
2022/09/27 05:36:19;;;;;;;;;;;;;;;;;;1897811;28;7540;-67
2022/09/27 05:37:17;;;;;;;;;;;;;;;;;;1894166;28;7009;-68
2022/09/27 05:38:14;;;;;;;;;;;;;;;;;;1893948;28;8465;-68
2022/09/27 05:39:12;;;;;;;;;;;;;;;;;;1895827;28;7001;-66
2022/09/27 05:40:09;;;;;;;;;;;;;;;;;;1896019;28;7017;-68
2022/09/27 05:41:26;;;;;;;;;;;;;;;;;;1895194;28;7096;-68
2022/09/27 05:42:24;;;;;;;;;;;;;;;;;;1896885;28;7001;-67
2022/09/27 05:43:22;;;;;;;;;;;;;;;;;;1896411;28;7042;-69
2022/09/27 05:44:20;;;;;;;;;;;;;;;;;;1895923;28;7092;-66
2022/09/27 05:45:18;;;;;;;;;;;;;;;;;;1894978;28;7009;-69
2022/09/27 05:46:15;;;;;;;;;;;;;;;;;;1896535;28;7113;-67
2022/09/27 05:47:14;;;;;;;;;;;;;;;;;;1895297;28;7009;-68
2022/09/27 05:48:13;;;;;;;;;;;;;;;;;;1896478;28;7009;-68
2022/09/27 05:49:10;;;;;;;;;;;;;;;;;;1896396;28;7092;-68
2022/09/27 05:50:08;;;;;;;;;;;;;;;;;;1896259;28;7005;-66
2022/09/27 05:51:06;;;;;;;;;;;;;;;;;;1896908;28;7029;-68
2022/09/27 05:52:03;;;;;;;;;;;;;;;;;;1896988;28;7297;-67
2022/09/27 05:53:00;;;;;;;;;;;;;;;;;;1896576;28;7009;-69
2022/09/27 05:53:58;;;;;;;;;;;;;;;;;;1895694;28;7046;-67
2022/09/27 05:54:56;;;;;;;;;;;;;;;;;;1895554;28;7106;-67
2022/09/27 05:55:53;;;;;;;;;;;;;;;;;;1897151;28;7021;-68
2022/09/27 05:56:57;;;;;;;;;;;;;;;;;;1896373;28;7092;-68
2022/09/27 05:57:55;;;;;;;;;;;;;;;;;;1895726;28;7092;-69
2022/09/27 05:58:53;;;;;;;;;;;;;;;;;;1894905;28;7361;-67
2022/09/27 05:59:51;;;;;;;;;;;;;;;;;;1896389;28;7022;-68
2022/09/27 06:00:48;;;;;;;;;;;;;;;;;;1896901;28;7307;-68
2022/09/27 06:01:46;;;;;;;;;;;;;;;;;;1896523;28;7006;-67
2022/09/27 06:02:43;;;;;;;;;;;;;;;;;;1895632;28;7096;-68
2022/09/27 06:03:41;;;;;;;;;;;;;;;;;;1902198;28;8557;-68
2022/09/27 06:04:39;;;;;;;;;;;;;;;;;;1902864;28;7029;-68
2022/09/27 06:05:37;;;;;;;;;;;;;;;;;;1896364;28;7440;-69
2022/09/27 06:06:36;;;;;;;;;;;;;;;;;;1896025;28;7566;-68
2022/09/27 06:07:33;;;;;;;;;;;;;;;;;;1894676;28;7149;-68
2022/09/27 06:08:34;;;;;;;;;;;;;;;;;;1896938;28;8055;-68
2022/09/27 06:09:32;;;;;;;;;;;;;;;;;;1895245;28;7097;-68
2022/09/27 06:10:30;;;;;;;;;;;;;;;;;;1896488;28;7077;-67
2022/09/27 06:11:27;;;;;;;;;;;;;;;;;;1896159;28;7376;-67
2022/09/27 06:12:25;;;;;;;;;;;;;;;;;;1894699;28;8023;-68
2022/09/27 06:13:22;;;;;;;;;;;;;;;;;;1895775;28;7089;-67
2022/09/27 06:14:20;;;;;;;;;;;;;;;;;;1896044;28;7328;-69
2022/09/27 06:15:17;;;;;;;;;;;;;;;;;;1893016;28;7038;-70
2022/09/27 06:16:14;;;;;;;;;;;;;;;;;;1890297;28;7074;-67
2022/09/27 06:17:12;;;;;;;;;;;;;;;;;;1889207;28;7021;-68
2022/09/27 06:18:11;;;;;;;;;;;;;;;;;;1894448;28;7037;-66
2022/09/27 06:19:09;;;;;;;;;;;;;;;;;;1889865;28;8028;-68
2022/09/27 06:20:07;;;;;;;;;;;;;;;;;;1892298;28;7002;-68
2022/09/27 06:21:05;;;;;;;;;;;;;;;;;;1891858;28;8131;-68
2022/09/27 06:22:03;;;;;;;;;;;;;;;;;;1880219;28;7005;-68
2022/09/27 06:23:09;;;;;;;;;;;;;;;;;;1882232;28;7113;-68
2022/09/27 06:24:07;;;;;;;;;;;;;;;;;;1893607;28;7165;-67
2022/09/27 06:25:06;;;;;;;;;;;;;;;;;;1874165;28;7125;-67
2022/09/27 06:26:05;;;;;;;;;;;;;;;;;;1874056;28;7042;-69
2022/09/27 06:27:03;;;;;;;;;;;;;;;;;;1887951;28;7376;-67
2022/09/27 06:28:01;;;;;;;;;;;;;;;;;;1889585;28;7049;-68
2022/09/27 06:28:58;;;;;;;;;;;;;;;;;;1894493;28;7026;-68
2022/09/27 06:29:55;;;;;;;;;;;;;;;;;;1892314;28;7259;-67
2022/09/27 06:30:53;;;;;;;;;;;;;;;;;;1888925;28;7006;-69
2022/09/27 06:31:50;;;;;;;;;;;;;;;;;;1893153;28;7006;-68
2022/09/27 06:32:54;;;;;;;;;;;;;;;;;;1882509;28;7363;-66
2022/09/27 06:33:51;;;;;;;;;;;;;;;;;;1888521;28;7046;-69
2022/09/27 06:34:49;;;;;;;;;;;;;;;;;;1887598;28;8051;-68
2022/09/27 06:35:48;;;;;;;;;;;;;;;;;;1883857;28;7029;-66
2022/09/27 06:36:48;;;;;;;;;;;;;;;;;;1883652;28;7005;-67
2022/09/27 06:37:47;;;;;;;;;;;;;;;;;;1891620;28;8101;-68
2022/09/27 06:38:45;;;;;;;;;;;;;;;;;;1882828;28;7045;-67
2022/09/27 06:39:42;;;;;;;;;;;;;;;;;;1886664;28;7006;-69
2022/09/27 06:40:44;;;;;;;;;;;;;;;;;;1891246;28;7022;-68
2022/09/27 06:41:43;;;;;;;;;;;;;;;;;;1877421;28;7081;-68
2022/09/27 06:42:42;;;;;;;;;;;;;;;;;;1874917;28;7082;-68
2022/09/27 06:43:40;;;;;;;;;;;;;;;;;;1883940;28;7192;-69
2022/09/27 06:44:38;;;;;;;;;;;;;;;;;;1881678;28;7205;-66
2022/09/27 06:45:37;;;;;;;;;;;;;;;;;;1875369;28;7002;-68
2022/09/27 06:46:37;;;;;;;;;;;;;;;;;;1875002;28;7040;-68
2022/09/27 06:47:37;;;;;;;;;;;;;;;;;;1881603;28;7092;-67
2022/09/27 06:48:38;;;;;;;;;;;;;;;;;;1883193;28;7253;-68
2022/09/27 06:49:35;;;;;;;;;;;;;;;;;;1880708;28;7014;-68
2022/09/27 06:50:34;;;;;;;;;;;;;;;;;;1891500;28;7001;-68
2022/09/27 06:51:32;;;;;;;;;;;;;;;;;;1877089;28;7002;-68
2022/09/27 06:52:31;;;;;;;;;;;;;;;;;;1873216;28;7016;-67
2022/09/27 06:53:28;;;;;;;;;;;;;;;;;;1883246;28;7042;-68
2022/09/27 06:54:26;;;;;;;;;;;;;;;;;;1895002;28;7364;-67
2022/09/27 06:55:24;;;;;;;;;;;;;;;;;;1893407;28;7010;-68
2022/09/27 06:56:21;;;;;;;;;;;;;;;;;;1891889;28;7042;-69
2022/09/27 07:00:22;;;;;;;;;;;;;;;;;;1887635;28;7209;-67
2022/09/27 07:01:09;;;;;;;;;;;;;;;;;;1885077;28;7120;-68
2022/09/27 07:02:06;;;;;;;;;;;;;;;;;;1884954;28;7137;-68
2022/09/27 07:03:04;;;;;;;;;;;;;;;;;;1890438;28;9463;-68
2022/09/27 07:04:01;;;;;;;;;;;;;;;;;;1895956;28;7281;-67
2022/09/27 07:04:58;;;;;;;;;;;;;;;;;;1889451;28;7026;-65